Time;durP1;ratioP1;P1;durP2;ratioP2;P2;SDS_P1;SDS_P2;PMS_P1;PMS_P2;Temp;Humidity;BMP_temperature;BMP_pressure;BME280_temperature;BME280_humidity;BME280_pressure;Samples;Min_cycle;Max_cycle;Signal;HPM_P1;HPM_P2
2022/11/19 00:01:25;;;;;;;10.80;8.32;;;;;;;21.06;57.54;99157.69;20635799;28;20060;-78
2022/11/19 00:21:47;;;;;;;10.35;8.00;;;;;;;21.02;57.40;99190.56;20661769;28;20113;-80
2022/11/19 00:31:48;;;;;;;11.57;8.30;;;;;;;20.97;57.41;99200.69;20662935;28;20023;-79
2022/11/19 00:41:49;;;;;;;11.07;8.27;;;;;;;20.99;57.29;99219.78;20672906;28;20521;-78
2022/11/19 00:51:52;;;;;;;10.45;8.10;;;;;;;20.94;57.35;99220.22;20668663;28;20058;-79
2022/11/19 01:01:52;;;;;;;10.45;7.75;;;;;;;20.96;57.16;99235.88;20671133;28;20473;-78
2022/11/19 01:11:53;;;;;;;10.38;8.27;;;;;;;20.94;56.86;99264.94;20682470;28;20037;-81
2022/11/19 01:21:53;;;;;;;12.50;8.10;;;;;;;20.94;56.83;99288.63;20672867;28;20053;-79
2022/11/19 01:31:53;;;;;;;10.40;8.10;;;;;;;20.92;57.04;99301.13;20662785;28;20042;-79
2022/11/19 01:41:54;;;;;;;9.23;7.50;;;;;;;20.89;57.11;99311.91;20657264;28;20038;-79
2022/11/19 01:51:59;;;;;;;9.60;7.65;;;;;;;20.86;56.69;99304.31;20646476;28;20049;-78
2022/11/19 02:01:59;;;;;;;11.52;8.55;;;;;;;20.86;56.48;99328.00;20666349;28;20413;-77
2022/11/19 02:12:34;;;;;;;10.00;8.23;;;;;;;20.84;56.72;99337.84;20651639;28;20041;-78
2022/11/19 02:22:49;;;;;;;10.48;8.32;;;;;;;20.81;56.59;99368.88;20666854;28;20405;-79
2022/11/19 02:32:50;;;;;;;11.13;7.43;;;;;;;20.80;56.35;99375.94;20654626;28;20045;-78
2022/11/19 02:43:07;;;;;;;9.73;7.45;;;;;;;20.75;56.66;99415.81;20664660;28;20050;-79
2022/11/19 02:53:07;;;;;;;10.75;8.10;;;;;;;20.70;56.21;99431.16;20671244;28;20073;-79
2022/11/19 03:24:32;;;;;;;9.32;7.65;;;;;;;20.75;56.50;99478.97;20636726;28;20049;-79
2022/11/19 03:34:34;;;;;;;9.63;7.60;;;;;;;20.77;56.34;99481.44;20651303;28;20413;-80
2022/11/19 03:44:47;;;;;;;10.30;8.00;;;;;;;20.78;56.50;99481.28;20654675;28;20509;-79
2022/11/19 03:54:47;;;;;;;10.90;8.15;;;;;;;20.77;56.67;99492.78;20673230;28;20092;-79
2022/11/19 04:04:48;;;;;;;9.98;8.05;;;;;;;20.74;56.20;99524.63;20669843;28;20041;-79
2022/11/19 04:14:48;;;;;;;12.45;8.70;;;;;;;20.69;55.83;99536.50;20674089;28;20041;-79
2022/11/19 04:24:49;;;;;;;10.63;8.88;;;;;;;20.64;55.69;99564.06;20675536;28;20109;-79
2022/11/19 04:34:49;;;;;;;10.77;8.65;;;;;;;20.67;55.84;99580.53;20668621;28;20100;-79
2022/11/19 04:44:50;;;;;;;10.45;7.90;;;;;;;20.64;56.03;99608.78;20672675;28;20082;-79
2022/11/19 04:54:53;;;;;;;11.80;8.02;;;;;;;20.63;55.88;99643.13;20672669;28;20101;-79
2022/11/19 05:04:53;;;;;;;10.60;7.97;;;;;;;20.61;55.84;99647.66;20657932;28;20070;-80
2022/11/19 05:14:54;;;;;;;9.70;7.68;;;;;;;20.62;56.27;99665.94;20667920;28;20108;-80
2022/11/19 05:24:54;;;;;;;11.50;8.63;;;;;;;20.72;55.98;99691.50;20665347;28;20045;-79
2022/11/19 05:34:55;;;;;;;12.57;9.75;;;;;;;20.82;55.79;99681.00;20656792;28;20046;-79
2022/11/19 05:44:55;;;;;;;16.85;9.05;;;;;;;20.92;57.12;99702.91;20636519;28;20173;-78
2022/11/19 05:54:55;;;;;;;18.52;11.27;;;;;;;20.92;54.99;99716.06;20661643;28;20045;-78
2022/11/19 06:04:56;;;;;;;12.90;9.95;;;;;;;20.99;55.40;99745.31;20657994;28;20088;-79
2022/11/19 06:14:57;;;;;;;15.48;10.75;;;;;;;21.02;55.36;99735.38;20655940;28;20130;-79
2022/11/19 06:24:58;;;;;;;15.00;11.32;;;;;;;21.08;55.31;99769.03;20659901;28;20042;-78
2022/11/19 06:35:01;;;;;;;21.77;15.13;;;;;;;21.15;55.35;99781.69;20661652;28;20054;-79
2022/11/19 06:45:07;;;;;;;17.70;13.15;;;;;;;21.19;55.42;99783.06;20660191;28;20648;-79
2022/11/19 06:55:07;;;;;;;21.73;14.60;;;;;;;21.24;54.94;99794.06;20646067;28;20050;-81
2022/11/19 07:05:08;;;;;;;26.65;15.40;;;;;;;21.32;54.79;99806.53;20665708;28;20061;-84
2022/11/19 07:15:09;;;;;;;30.30;19.20;;;;;;;21.43;55.44;99819.59;20681173;28;20436;-77
2022/11/19 07:25:13;;;;;;;26.52;19.65;;;;;;;21.50;55.06;99815.44;20667384;28;20547;-76
2022/11/19 07:35:13;;;;;;;24.10;15.73;;;;;;;20.83;47.07;99836.09;20657501;28;20068;-78
2022/11/19 07:45:15;;;;;;;22.20;15.43;;;;;;;21.30;49.94;99840.06;20626483;28;20439;-82
2022/11/19 07:55:16;;;;;;;32.20;16.40;;;;;;;21.43;52.07;99838.03;20619322;28;20116;-79
2022/11/19 08:05:16;;;;;;;27.77;16.48;;;;;;;21.48;52.25;99825.28;20639725;28;20081;-79
2022/11/19 08:15:18;;;;;;;26.55;14.50;;;;;;;21.22;46.51;99843.38;20639135;28;20401;-81
2022/11/19 08:25:18;;;;;;;22.27;13.50;;;;;;;21.35;48.82;99872.94;20658679;28;20536;-82
2022/11/19 08:35:19;;;;;;;21.23;14.30;;;;;;;21.34;50.70;99876.53;20685244;28;20041;-80
2022/11/19 08:45:21;;;;;;;24.60;16.85;;;;;;;21.36;51.12;99887.78;20676459;28;20063;-81
2022/11/19 08:55:21;;;;;;;25.70;16.77;;;;;;;21.41;51.75;99896.13;20677633;28;20034;-82
2022/11/19 09:05:22;;;;;;;23.90;15.23;;;;;;;21.45;52.33;99899.31;20675044;28;20053;-83
2022/11/19 09:15:22;;;;;;;20.33;14.25;;;;;;;21.46;52.28;99942.28;20671261;28;20834;-82
2022/11/19 09:25:23;;;;;;;20.98;14.50;;;;;;;21.48;52.30;99979.88;20679722;28;20049;-81
2022/11/19 09:35:24;;;;;;;20.35;13.75;;;;;;;21.55;52.23;99944.97;20668218;28;20101;-81
2022/11/19 09:45:44;;;;;;;20.13;12.80;;;;;;;21.48;52.44;99935.91;20665878;28;20053;-82
2022/11/19 09:55:46;;;;;;;18.42;13.15;;;;;;;21.43;52.61;99962.69;20669333;28;20046;-81
2022/11/19 10:06:05;;;;;;;17.35;12.80;;;;;;;21.43;52.43;99969.72;20667629;28;20062;-81
2022/11/19 10:16:52;;;;;;;16.25;11.50;;;;;;;21.40;52.57;99962.09;20673093;28;20567;-79
2022/11/19 10:27:09;;;;;;;17.00;11.52;;;;;;;21.40;52.43;99946.31;20632498;28;20164;-81
2022/11/19 10:37:17;;;;;;;16.58;10.98;;;;;;;21.38;52.50;99946.41;20671577;28;20042;-81
2022/11/19 10:47:43;;;;;;;14.65;10.55;;;;;;;21.43;52.20;99943.38;20663470;28;20510;-81
2022/11/19 10:57:46;;;;;;;13.38;10.02;;;;;;;21.47;52.31;99954.50;20664844;28;20041;-80
2022/11/19 11:07:55;;;;;;;13.07;10.10;;;;;;;21.44;52.55;99974.84;20668296;28;20504;-80
2022/11/19 11:18:02;;;;;;;12.77;9.45;;;;;;;21.42;52.56;99992.59;20674749;28;20042;-81
2022/11/19 11:28:21;;;;;;;13.43;9.38;;;;;;;21.34;52.14;99999.50;20683433;28;20054;-81
2022/11/19 11:38:25;;;;;;;13.02;9.20;;;;;;;21.34;52.46;100002.94;20662152;28;20038;-81
2022/11/19 11:48:33;;;;;;;13.48;9.70;;;;;;;21.33;52.25;99989.91;20676133;28;20053;-81
2022/11/19 11:58:34;;;;;;;13.48;9.52;;;;;;;21.40;52.14;99983.16;20672841;28;20424;-81
2022/11/19 12:08:35;;;;;;;13.68;9.50;;;;;;;21.61;51.59;99983.16;20699965;28;20202;-81
2022/11/19 12:18:41;;;;;;;13.65;9.98;;;;;;;21.71;52.25;99986.66;20693485;28;20042;-81
2022/11/19 12:28:44;;;;;;;13.15;9.80;;;;;;;21.76;51.66;99978.38;20682893;28;20046;-81
2022/11/19 12:38:57;;;;;;;12.48;9.65;;;;;;;21.79;51.86;99975.47;20692191;28;20027;-82
2022/11/19 12:49:21;;;;;;;12.90;9.55;;;;;;;21.88;52.08;99960.66;20691145;28;20493;-82
2022/11/19 12:59:46;;;;;;;12.35;9.77;;;;;;;21.99;51.72;99972.91;20700305;28;20034;-81
2022/11/19 13:10:00;;;;;;;11.73;9.13;;;;;;;22.01;51.64;99979.72;20671903;28;20559;-81
2022/11/19 13:20:03;;;;;;;13.82;9.55;;;;;;;21.94;51.67;99970.66;20687734;28;20037;-81
2022/11/19 13:30:16;;;;;;;11.35;8.85;;;;;;;21.88;51.05;99990.47;20684856;28;20061;-81
2022/11/19 13:40:40;;;;;;;13.23;9.48;;;;;;;21.81;51.43;99999.06;20682794;28;20042;-81
2022/11/19 13:50:44;;;;;;;22.50;9.10;;;;;;;21.71;51.28;100014.81;20680762;28;20128;-80
2022/11/19 14:01:16;;;;;;;12.43;9.20;;;;;;;21.65;51.02;100024.06;20690380;28;20593;-81
2022/11/19 14:11:41;;;;;;;12.18;8.73;;;;;;;21.61;50.90;100020.03;20671068;28;20046;-80
2022/11/19 14:32:08;;;;;;;12.32;9.35;;;;;;;21.53;51.49;100007.50;20686080;28;20063;-81
2022/11/19 14:42:18;;;;;;;12.02;9.13;;;;;;;21.48;51.78;99998.31;20680402;28;20116;-82
2022/11/19 14:52:31;;;;;;;12.27;8.70;;;;;;;21.44;51.79;100027.53;20677466;28;20058;-82
2022/11/19 15:02:38;;;;;;;10.50;8.27;;;;;;;21.41;51.51;100056.78;20679228;28;20499;-83
2022/11/19 15:12:38;;;;;;;11.90;8.85;;;;;;;21.37;51.57;100052.75;20680688;28;20536;-81
2022/11/19 15:23:02;;;;;;;11.25;8.45;;;;;;;21.36;51.77;100055.47;20674825;28;20042;-81
2022/11/19 15:33:09;;;;;;;12.15;9.05;;;;;;;21.30;51.50;100079.69;20665155;28;20084;-81
2022/11/19 15:43:31;;;;;;;16.95;10.00;;;;;;;20.71;43.89;100058.94;20655505;28;20038;-81
2022/11/19 15:53:32;;;;;;;14.13;8.87;;;;;;;20.93;46.60;100067.75;20616309;28;20057;-81
2022/11/19 16:03:37;;;;;;;16.15;8.93;;;;;;;21.02;47.88;100064.38;20640062;28;20057;-78
2022/11/19 16:34:28;;;;;;;12.73;8.13;;;;;;;21.06;50.47;100092.13;20650544;28;20042;-83
2022/11/19 16:44:28;;;;;;;13.88;8.20;;;;;;;21.05;51.00;100108.06;20655320;28;21618;-83
2022/11/19 16:54:49;;;;;;;10.95;7.65;;;;;;;21.04;51.34;100124.81;20650855;28;20552;-82
2022/11/19 17:04:52;;;;;;;11.95;7.88;;;;;;;21.13;51.70;100134.59;20672989;28;20310;-84
2022/11/19 17:14:54;;;;;;;;;;;;;;;21.12;51.90;100125.03;20680101;28;20382;-84
2022/11/19 17:24:55;;;;;;;10.23;7.50;;;;;;;21.12;52.35;100119.75;20655024;28;19929;-84
2022/11/19 17:34:56;;;;;;;11.15;7.35;;;;;;;21.14;52.32;100122.25;20676088;28;20531;-87
2022/11/19 17:44:56;;;;;;;10.18;7.22;;;;;;;21.15;52.37;100127.38;20705966;28;20116;-87
2022/11/19 17:55:32;;;;;;;11.85;7.25;;;;;;;21.15;53.06;100121.31;20666778;28;20042;-87
2022/11/19 18:05:36;;;;;;;13.68;6.68;;;;;;;21.14;52.98;100109.09;20584191;28;20046;-84
2022/11/19 18:15:38;;;;;;;8.93;6.78;;;;;;;21.20;53.38;100116.50;20599011;28;20100;-84
2022/11/19 18:25:38;;;;;;;22.52;9.85;;;;;;;21.17;53.04;100106.22;20625031;28;20046;-87
2022/11/19 18:35:40;;;;;;;60.92;21.55;;;;;;;21.21;53.20;100103.19;20621212;28;20047;-85
2022/11/19 18:45:40;;;;;;;51.97;20.05;;;;;;;21.27;52.73;100115.84;20618881;28;20153;-85
2022/11/19 18:55:40;;;;;;;51.75;18.10;;;;;;;21.29;52.74;100102.59;20600889;28;20126;-85
2022/11/19 19:05:42;;;;;;;41.42;16.48;;;;;;;21.29;52.65;100110.47;20611889;28;20093;-86
2022/11/19 19:15:42;;;;;;;36.38;15.15;;;;;;;21.28;52.71;100103.53;20610427;28;20094;-87
2022/11/19 19:25:42;;;;;;;36.33;14.20;;;;;;;21.28;52.63;100114.06;20614604;28;20050;-85
2022/11/19 19:35:43;;;;;;;33.67;13.30;;;;;;;21.27;52.84;100126.38;20603902;28;20112;-87
2022/11/19 19:45:45;;;;;;;27.33;11.55;;;;;;;21.22;53.20;100119.84;20622273;28;20049;-87
2022/11/19 19:55:45;;;;;;;25.80;11.40;;;;;;;21.26;52.63;100121.25;20618302;28;20043;-94
2022/11/19 20:05:48;;;;;;;24.35;10.45;;;;;;;21.24;52.67;100128.47;20615853;28;20038;-94
2022/11/19 20:15:49;;;;;;;22.52;9.95;;;;;;;21.22;53.05;100139.09;20619069;28;20132;-86
2022/11/19 20:25:49;;;;;;;21.95;10.43;;;;;;;21.19;53.06;100149.03;20643932;28;20047;-84
2022/11/19 20:35:52;;;;;;;27.27;11.38;;;;;;;21.17;53.87;100156.25;20703761;28;20052;-89
2022/11/19 20:45:52;;;;;;;20.63;10.68;;;;;;;21.15;53.90;100150.25;20713917;28;20050;-87
2022/11/19 20:55:53;;;;;;;26.58;10.13;;;;;;;21.14;54.34;100143.31;20712761;28;20033;-95
2022/11/19 21:06:01;;;;;;;23.20;9.23;;;;;;;21.10;54.16;100167.28;20705488;28;20295;-83
2022/11/19 21:16:13;;;;;;;24.20;9.68;;;;;;;21.04;53.92;100137.97;20684913;28;20045;-84
2022/11/19 21:26:22;;;;;;;27.23;9.63;;;;;;;20.97;53.25;100123.63;20690345;28;20691;-84
2022/11/19 21:36:22;;;;;;;23.88;8.60;;;;;;;20.92;54.38;100122.22;20663869;28;20655;-82
2022/11/19 21:46:23;;;;;;;16.17;8.57;;;;;;;20.87;54.15;100098.06;20690488;28;20154;-84
2022/11/19 21:56:25;;;;;;;17.13;8.25;;;;;;;20.83;54.24;100087.91;20710227;28;20117;-85
2022/11/19 22:06:26;;;;;;;14.27;8.13;;;;;;;20.84;54.57;100073.78;20675800;28;20046;-85
2022/11/19 22:16:27;;;;;;;15.30;7.57;;;;;;;20.80;54.75;100052.16;20687459;28;20030;-83
2022/11/19 22:26:28;;;;;;;13.50;7.47;;;;;;;20.78;54.98;100051.44;20665784;28;20552;-82
2022/11/19 22:36:30;;;;;;;12.65;7.57;;;;;;;20.78;54.67;100062.78;20668840;28;20121;-82
2022/11/19 22:46:31;;;;;;;11.10;7.17;;;;;;;20.73;54.76;100030.75;20679585;28;20049;-84
2022/11/19 22:56:31;;;;;;;12.80;7.25;;;;;;;20.68;55.13;100016.25;20680492;28;20031;-83
2022/11/19 23:06:35;;;;;;;11.70;7.00;;;;;;;20.63;54.71;100030.63;20661322;28;20052;-84
2022/11/19 23:16:37;;;;;;;12.65;7.00;;;;;;;20.60;54.90;100043.19;20673070;28;20128;-83
2022/11/19 23:26:38;;;;;;;12.70;6.60;;;;;;;20.62;54.90;100000.00;20697232;28;20066;-83
2022/11/19 23:36:39;;;;;;;9.70;5.68;;;;;;;20.57;54.73;100012.72;20682455;28;20173;-84
2022/11/19 23:46:40;;;;;;;10.13;5.85;;;;;;;20.51;55.40;99996.56;20692831;28;20054;-85
2022/11/19 23:56:40;;;;;;;8.35;5.82;;;;;;;20.50;54.83;100002.81;20674270;28;20052;-84
